createdAt,value
2022-11-14T00:01:52.598Z,88.07
2022-11-14T00:04:20.137Z,89.65
2022-11-14T00:06:47.976Z,90.18
2022-11-14T00:09:15.386Z,88.88
2022-11-14T00:11:42.791Z,87.16
2022-11-14T00:14:10.845Z,88.82
2022-11-14T00:16:38.237Z,91.79
2022-11-14T00:19:06.932Z,95.10
2022-11-14T00:21:34.324Z,94.25
2022-11-14T00:24:01.722Z,95.74
2022-11-14T00:26:29.196Z,95.80
2022-11-14T00:28:56.897Z,94.98
2022-11-14T00:31:24.282Z,95.40
2022-11-14T00:33:51.720Z,93.10
2022-11-14T00:36:20.502Z,94.59
2022-11-14T00:38:47.907Z,93.96
2022-11-14T00:41:15.349Z,92.53
2022-11-14T00:43:42.750Z,94.22
2022-11-14T00:46:10.189Z,92.50
2022-11-14T00:48:37.684Z,90.95
2022-11-14T00:51:05.276Z,90.77
2022-11-14T00:53:33.996Z,94.54
2022-11-14T00:56:01.883Z,94.73
2022-11-14T00:58:29.586Z,92.83
2022-11-14T01:00:57.435Z,98.24
2022-11-14T01:03:24.955Z,94.38
2022-11-14T01:05:52.641Z,95.65
2022-11-14T01:08:20.941Z,97.03
2022-11-14T01:10:51.794Z,94.87
2022-11-14T01:13:19.941Z,94.54
2022-11-14T01:15:49.316Z,93.80
2022-11-14T01:18:19.462Z,95.71
2022-11-14T01:20:48.759Z,98.26
2022-11-14T01:23:17.585Z,99.33
2022-11-14T01:25:45.355Z,98.10
2022-11-14T01:28:16.604Z,97.39
2022-11-14T01:30:44.213Z,97.12
2022-11-14T01:33:11.725Z,96.85
2022-11-14T01:35:40.055Z,94.73
2022-11-14T01:38:07.520Z,95.22
2022-11-14T01:40:35.108Z,97.10
2022-11-14T01:43:38.522Z,96.04
2022-11-14T01:46:07.403Z,99.13
2022-11-14T01:48:40.782Z,98.41
2022-11-14T01:51:20.674Z,97.01
2022-11-14T01:53:50.612Z,95.68
2022-11-14T01:56:21.730Z,96.18
2022-11-14T01:58:55.162Z,95.64
2022-11-14T02:01:23.105Z,95.01
2022-11-14T02:03:53.996Z,93.70
2022-11-14T02:06:23.461Z,93.36
2022-11-14T02:08:52.432Z,91.60
2022-11-14T02:11:19.834Z,94.66
2022-11-14T02:13:47.303Z,94.38
2022-11-14T02:16:16.209Z,97.57
2022-11-14T02:18:43.613Z,98.41
2022-11-14T02:21:12.362Z,98.60
2022-11-14T02:23:39.792Z,98.42
2022-11-14T02:26:07.184Z,96.38
2022-11-14T02:28:34.554Z,99.53
2022-11-14T02:31:01.980Z,98.30
2022-11-14T02:33:29.362Z,97.19
2022-11-14T02:35:56.778Z,96.54
2022-11-14T02:38:25.579Z,95.53
2022-11-14T02:40:53.012Z,91.50
2022-11-14T02:43:20.408Z,95.20
2022-11-14T02:45:47.840Z,95.87
2022-11-14T02:48:15.278Z,94.61
2022-11-14T02:50:42.837Z,94.19
2022-11-14T02:53:10.455Z,94.65
2022-11-14T02:55:39.170Z,96.99
2022-11-14T02:58:07.440Z,95.28
2022-11-14T03:00:35.491Z,92.50
2022-11-14T03:03:04.160Z,94.18
2022-11-14T03:05:31.631Z,92.79
2022-11-14T03:07:59.052Z,91.72
2022-11-14T03:10:26.639Z,90.85
2022-11-14T03:12:56.329Z,92.46
2022-11-14T03:15:24.315Z,93.67
2022-11-14T03:17:51.988Z,93.40
2022-11-14T03:20:19.877Z,93.25
2022-11-14T03:22:47.250Z,92.80
2022-11-14T03:25:14.635Z,92.61
2022-11-14T03:27:42.010Z,89.97
2022-11-14T03:30:12.439Z,94.39
2022-11-14T03:32:39.867Z,93.75
2022-11-14T03:35:08.712Z,94.42
2022-11-14T03:37:36.283Z,91.74
2022-11-14T03:40:04.190Z,90.96
2022-11-14T03:42:34.233Z,96.55
2022-11-14T03:45:02.198Z,95.49
2022-11-14T03:47:30.906Z,97.47
2022-11-14T03:49:58.281Z,97.58
2022-11-14T03:52:26.729Z,97.18
2022-11-14T03:54:54.118Z,94.26
2022-11-14T03:57:21.512Z,95.70
2022-11-14T03:59:48.903Z,93.89
2022-11-14T04:02:16.309Z,91.07
2022-11-14T04:04:45.036Z,91.10
2022-11-14T04:07:12.504Z,91.47
2022-11-14T04:09:39.982Z,92.06
2022-11-14T04:12:10.116Z,92.00
2022-11-14T04:14:41.744Z,91.67
2022-11-14T04:17:09.180Z,91.20
2022-11-14T04:19:36.773Z,90.31
2022-11-14T04:22:06.294Z,93.00
2022-11-14T04:24:33.673Z,94.08
2022-11-14T04:27:01.065Z,96.59
2022-11-14T04:29:28.467Z,97.05
2022-11-14T04:31:55.909Z,96.48
2022-11-14T04:34:23.312Z,93.45
2022-11-14T04:36:51.293Z,94.93
2022-11-14T04:39:20.047Z,93.11
2022-11-14T04:41:47.423Z,93.03
2022-11-14T04:44:14.805Z,92.45
2022-11-14T04:46:42.201Z,91.98
2022-11-14T04:49:09.638Z,90.16
2022-11-14T04:51:37.057Z,89.33
2022-11-14T04:54:04.622Z,89.11
2022-11-14T04:56:33.423Z,89.80
2022-11-14T04:59:00.913Z,90.01
2022-11-14T05:01:28.453Z,90.78
2022-11-14T05:03:56.549Z,90.69
2022-11-14T05:06:24.083Z,93.19
2022-11-14T05:08:51.456Z,93.19
2022-11-14T05:11:23.188Z,94.26
2022-11-14T05:13:55.368Z,93.45
2022-11-14T05:16:22.745Z,92.07
2022-11-14T05:18:50.172Z,90.03
2022-11-14T05:21:17.579Z,92.83
2022-11-14T05:23:45.008Z,93.11
2022-11-14T05:26:15.191Z,92.20
2022-11-14T05:28:42.617Z,91.07
2022-11-14T05:31:13.541Z,92.19
2022-11-14T05:33:40.990Z,93.09
2022-11-14T05:36:10.703Z,91.97
2022-11-14T05:38:38.234Z,92.79
2022-11-14T05:41:09.466Z,93.20
2022-11-14T05:43:37.349Z,90.28
2022-11-14T05:46:06.873Z,92.90
2022-11-14T05:48:35.608Z,90.83
2022-11-14T05:51:05.173Z,91.99
2022-11-14T05:53:34.145Z,93.46
2022-11-14T05:56:02.354Z,93.48
2022-11-14T05:58:30.222Z,91.28
2022-11-14T06:01:03.026Z,90.55
2022-11-14T06:03:32.660Z,92.56
2022-11-14T06:06:03.011Z,95.63
2022-11-14T06:08:31.233Z,94.11
2022-11-14T06:11:03.275Z,98.46
2022-11-14T06:13:31.083Z,97.23
2022-11-14T06:16:01.209Z,94.86
2022-11-14T06:18:29.336Z,94.60
2022-11-14T06:21:00.132Z,94.73
2022-11-14T06:23:29.115Z,94.65
2022-11-14T06:26:00.498Z,91.88
2022-11-14T06:28:28.309Z,92.31
2022-11-14T06:30:59.277Z,96.06
2022-11-14T06:33:26.780Z,96.27
2022-11-14T06:35:59.093Z,94.97
2022-11-14T06:38:26.625Z,95.39
2022-11-14T06:41:02.642Z,95.76
2022-11-14T06:43:30.032Z,93.86
2022-11-14T06:45:57.522Z,93.87
2022-11-14T06:48:24.952Z,96.02
2022-11-14T06:50:53.519Z,96.07
2022-11-14T06:53:21.074Z,95.08
2022-11-14T06:55:55.940Z,95.19
2022-11-14T06:58:23.331Z,93.86
2022-11-14T07:00:50.790Z,94.89
2022-11-14T07:03:18.259Z,95.80
2022-11-14T07:05:45.921Z,98.06
2022-11-14T07:08:16.044Z,97.35
2022-11-14T07:10:47.238Z,96.03
2022-11-14T07:13:15.992Z,95.73
2022-11-14T07:15:50.649Z,93.50
2022-11-14T07:18:18.054Z,93.47
2022-11-14T07:20:45.471Z,96.19
2022-11-14T07:23:12.911Z,94.26
2022-11-14T07:25:40.273Z,91.07
2022-11-14T07:28:08.075Z,95.39
2022-11-14T07:30:36.795Z,94.78
2022-11-14T07:33:04.346Z,95.53
2022-11-14T07:35:31.811Z,95.40
2022-11-14T07:38:03.432Z,94.69
2022-11-14T07:40:30.859Z,94.41
2022-11-14T07:42:59.986Z,96.66
2022-11-14T07:45:27.722Z,91.33
2022-11-14T07:47:58.214Z,89.80
2022-11-14T07:50:25.651Z,92.49
2022-11-14T07:52:53.977Z,94.37
2022-11-14T07:55:22.020Z,92.31
2022-11-14T07:57:49.773Z,90.26
2022-11-14T08:00:17.938Z,93.80
2022-11-14T08:02:46.735Z,94.28
2022-11-14T08:05:15.440Z,92.47
2022-11-14T08:07:42.873Z,96.16
2022-11-14T08:10:11.929Z,95.51
2022-11-14T08:12:39.541Z,94.53
2022-11-14T08:15:08.868Z,95.81
2022-11-14T08:17:36.898Z,98.00
2022-11-14T08:20:05.211Z,96.43
2022-11-14T08:22:34.136Z,92.84
2022-11-14T08:25:01.629Z,92.38
2022-11-14T08:27:29.012Z,90.48
2022-11-14T08:29:56.444Z,88.84
2022-11-14T08:32:23.839Z,87.68
2022-11-14T08:34:51.324Z,86.72
2022-11-14T08:37:18.744Z,91.28
2022-11-14T08:39:47.471Z,89.73
2022-11-14T08:42:14.870Z,92.00
2022-11-14T08:44:42.236Z,93.16
2022-11-14T08:47:09.717Z,92.91
2022-11-14T08:49:37.101Z,93.39
2022-11-14T08:52:04.753Z,94.48
2022-11-14T08:54:32.448Z,91.46
2022-11-14T08:57:01.230Z,94.47
2022-11-14T08:59:28.651Z,92.00
2022-11-14T09:01:56.176Z,91.85
2022-11-14T09:04:23.903Z,90.89
2022-11-14T09:06:51.840Z,89.34
2022-11-14T09:09:19.298Z,90.09
2022-11-14T09:11:46.702Z,91.53
2022-11-14T09:14:15.478Z,86.27
2022-11-14T09:16:42.897Z,89.11
2022-11-14T09:19:10.405Z,89.46
2022-11-14T09:21:37.801Z,90.04
2022-11-14T09:24:05.410Z,89.96
2022-11-14T09:26:32.935Z,88.90
2022-11-14T09:29:00.904Z,92.14
2022-11-14T09:31:30.064Z,91.77
2022-11-14T09:33:57.483Z,90.41
2022-11-14T09:36:24.877Z,88.75
2022-11-14T09:38:53.030Z,85.25
2022-11-14T09:41:25.705Z,100.00
2022-11-14T09:44:33.691Z,89.23
2022-11-14T09:47:06.765Z,84.77
2022-11-14T09:49:38.703Z,87.08
2022-11-14T09:52:16.603Z,76.65
2022-11-14T09:54:51.149Z,78.99
2022-11-14T09:57:21.138Z,82.38
2022-11-14T09:59:49.124Z,82.35
2022-11-14T10:02:28.305Z,82.96
2022-11-14T10:05:10.699Z,80.90
2022-11-14T10:07:47.509Z,83.99
2022-11-14T10:10:26.230Z,85.00
2022-11-14T10:13:04.541Z,85.68
2022-11-14T10:15:38.051Z,86.85
2022-11-14T10:18:23.180Z,85.48
2022-11-14T10:20:55.345Z,84.43
2022-11-14T10:23:35.614Z,83.47
2022-11-14T10:26:12.796Z,79.86
2022-11-14T10:28:48.938Z,78.12
2022-11-14T10:31:26.281Z,78.07
2022-11-14T10:34:02.560Z,81.12
2022-11-14T10:36:48.094Z,80.86
2022-11-14T10:39:21.185Z,81.83
2022-11-14T10:42:03.183Z,80.91
2022-11-14T10:44:40.392Z,80.18
2022-11-14T10:47:13.971Z,81.14
2022-11-14T10:49:44.044Z,80.88
2022-11-14T10:52:15.710Z,82.72
2022-11-14T10:54:47.451Z,82.36
2022-11-14T10:57:17.252Z,81.98
2022-11-14T10:59:44.701Z,80.66
2022-11-14T11:02:12.495Z,80.83
2022-11-14T11:04:41.403Z,80.21
2022-11-14T11:07:42.455Z,80.40
2022-11-14T11:10:39.948Z,78.79
2022-11-14T11:13:07.415Z,80.39
2022-11-14T11:15:41.789Z,78.96
2022-11-14T11:18:26.493Z,78.97
2022-11-14T11:21:06.038Z,80.11
2022-11-14T11:23:35.576Z,78.86
2022-11-14T11:26:05.829Z,78.37
2022-11-14T11:28:34.721Z,78.51
2022-11-14T11:31:04.164Z,81.08
2022-11-14T11:33:35.454Z,80.98
2022-11-14T11:36:06.652Z,81.46
2022-11-14T11:38:35.540Z,80.11
2022-11-14T11:41:26.033Z,81.12
2022-11-14T11:44:05.828Z,77.91
2022-11-14T11:46:48.049Z,79.50
2022-11-14T11:49:20.064Z,78.40
2022-11-14T11:51:51.287Z,79.75
2022-11-14T11:54:24.117Z,78.74
2022-11-14T11:56:57.978Z,80.20
2022-11-14T11:59:34.392Z,78.87
2022-11-14T12:02:04.339Z,76.61
2022-11-14T12:04:31.859Z,78.61
2022-11-14T12:07:13.383Z,78.22
2022-11-14T12:10:09.283Z,79.17
2022-11-14T12:12:44.066Z,77.53
2022-11-14T12:15:25.106Z,76.01
2022-11-14T12:18:13.342Z,75.50
2022-11-14T12:20:54.005Z,74.86
2022-11-14T12:23:38.608Z,75.04
2022-11-14T12:26:24.137Z,76.79
2022-11-14T12:29:08.689Z,74.90
2022-11-14T12:31:39.232Z,76.57
2022-11-14T12:34:15.348Z,76.78
2022-11-14T12:36:45.239Z,76.30
2022-11-14T12:39:23.676Z,76.71
2022-11-14T12:42:02.747Z,76.87
2022-11-14T12:44:38.472Z,75.47
2022-11-14T12:47:20.313Z,75.24
2022-11-14T12:50:03.074Z,72.55
2022-11-14T12:52:45.542Z,76.37
2022-11-14T12:55:48.939Z,75.08
2022-11-14T12:58:25.660Z,73.35
2022-11-14T13:01:09.505Z,74.76
2022-11-14T13:03:53.281Z,76.27
2022-11-14T13:06:25.769Z,75.90
2022-11-14T13:09:24.418Z,74.00
2022-11-14T13:12:09.363Z,73.98
2022-11-14T13:15:08.610Z,74.79
2022-11-14T13:17:53.918Z,74.54
2022-11-14T13:20:46.180Z,75.52
2022-11-14T13:23:50.811Z,75.01
2022-11-14T13:26:37.134Z,76.99
2022-11-14T13:29:04.763Z,74.53
2022-11-14T13:31:55.846Z,73.05
2022-11-14T13:34:34.899Z,74.87
2022-11-14T13:37:13.922Z,73.78
2022-11-14T13:39:49.271Z,75.05
2022-11-14T13:42:36.666Z,73.40
2022-11-14T13:45:38.650Z,74.82
2022-11-14T13:48:47.206Z,75.74
2022-11-14T13:54:17.187Z,76.96
2022-11-14T13:56:58.342Z,75.78
2022-11-14T13:59:49.164Z,75.31
2022-11-14T14:02:35.803Z,76.11
2022-11-14T14:05:17.777Z,75.96
2022-11-14T14:07:59.237Z,76.49
2022-11-14T14:10:30.877Z,75.12
2022-11-14T14:13:13.723Z,74.72
2022-11-14T14:15:47.597Z,74.04
2022-11-14T14:18:24.654Z,73.40
2022-11-14T14:21:05.107Z,75.74
2022-11-14T14:23:41.887Z,75.00
2022-11-14T14:26:22.162Z,74.75
2022-11-14T14:28:56.378Z,75.77
2022-11-14T14:31:24.167Z,75.41
2022-11-14T14:33:53.338Z,76.38
2022-11-14T14:36:25.726Z,77.19
2022-11-14T14:39:13.866Z,76.76
2022-11-14T14:41:42.156Z,75.29
2022-11-14T14:44:21.194Z,76.03
2022-11-14T14:46:49.026Z,75.98
2022-11-14T14:49:22.591Z,76.89
2022-11-14T14:51:55.831Z,76.81
2022-11-14T14:54:26.937Z,76.85
2022-11-14T14:56:56.501Z,78.94
2022-11-14T14:59:26.089Z,78.21
2022-11-14T15:01:55.746Z,76.72
2022-11-14T15:04:25.578Z,77.66
2022-11-14T15:06:57.447Z,78.78
2022-11-14T15:09:27.202Z,76.18
2022-11-14T15:11:58.615Z,76.85
2022-11-14T15:14:29.897Z,76.77
2022-11-14T15:16:58.798Z,78.48
2022-11-14T15:19:29.790Z,78.04
2022-11-14T15:22:06.994Z,77.77
2022-11-14T15:24:34.599Z,77.72
2022-11-14T15:27:05.661Z,78.94
2022-11-14T15:29:33.516Z,77.97
2022-11-14T15:32:03.238Z,78.17
2022-11-14T15:34:32.534Z,77.49
2022-11-14T15:37:22.133Z,77.24
2022-11-14T15:39:49.628Z,77.31
2022-11-14T15:42:20.963Z,77.92
2022-11-14T15:44:49.427Z,78.54
2022-11-14T15:47:23.140Z,78.94
2022-11-14T15:49:58.274Z,79.72
2022-11-14T15:52:31.861Z,78.81
2022-11-14T15:54:59.284Z,79.14
2022-11-14T15:57:26.710Z,79.18
2022-11-14T15:59:54.086Z,78.98
2022-11-14T16:02:23.438Z,80.44
2022-11-14T16:04:52.200Z,80.61
2022-11-14T16:07:20.195Z,80.98
2022-11-14T16:09:49.283Z,79.40
2022-11-14T16:12:17.022Z,78.72
2022-11-14T16:14:44.952Z,80.28
2022-11-14T16:17:14.817Z,78.80
2022-11-14T16:19:42.656Z,79.77
2022-11-14T16:22:12.724Z,81.17
2022-11-14T16:24:40.676Z,78.27
2022-11-14T16:27:09.571Z,79.00
2022-11-14T16:29:36.966Z,79.33
2022-11-14T16:32:04.475Z,79.45
2022-11-14T16:34:31.896Z,78.16
2022-11-14T16:37:00.742Z,78.44
2022-11-14T16:39:28.322Z,77.49
2022-11-14T16:42:01.729Z,80.32
2022-11-14T16:44:34.568Z,80.22
2022-11-14T16:47:06.406Z,79.23
2022-11-14T16:49:33.780Z,78.80
2022-11-14T16:52:05.477Z,79.13
2022-11-14T16:54:33.141Z,80.79
2022-11-14T16:57:00.583Z,79.04
2022-11-14T16:59:28.054Z,79.38
2022-11-14T17:01:56.811Z,78.38
2022-11-14T17:04:24.362Z,78.25
2022-11-14T17:06:51.912Z,79.74
2022-11-14T17:09:19.350Z,79.22
2022-11-14T17:11:46.805Z,80.50
2022-11-14T17:14:14.266Z,80.69
2022-11-14T17:16:41.702Z,81.21
2022-11-14T17:19:10.474Z,80.16
2022-11-14T17:21:37.920Z,80.08
2022-11-14T17:24:06.003Z,80.72
2022-11-14T17:26:33.380Z,81.09
2022-11-14T17:29:00.761Z,81.42
2022-11-14T17:31:28.158Z,79.66
2022-11-14T17:33:57.049Z,79.77
2022-11-14T17:36:28.483Z,81.85
2022-11-14T17:38:56.537Z,80.98
2022-11-14T17:41:24.166Z,82.06
2022-11-14T17:43:53.699Z,83.31
2022-11-14T17:46:21.164Z,83.28
2022-11-14T17:48:48.647Z,82.82
2022-11-14T17:51:17.349Z,81.63
2022-11-14T17:53:46.067Z,81.15
2022-11-14T17:56:15.643Z,82.71
2022-11-14T17:58:43.580Z,82.99
2022-11-14T18:01:12.073Z,84.62
2022-11-14T18:03:39.829Z,82.50
2022-11-14T18:06:08.791Z,82.36
2022-11-14T18:08:36.680Z,81.58
2022-11-14T18:11:07.284Z,81.75
2022-11-14T18:13:35.204Z,81.63
2022-11-14T18:16:03.803Z,83.20
2022-11-14T18:18:32.696Z,83.72
2022-11-14T18:21:07.504Z,84.31
2022-11-14T18:23:36.004Z,83.78
2022-11-14T18:26:11.015Z,83.38
2022-11-14T18:28:38.401Z,82.18
2022-11-14T18:31:07.479Z,81.68
2022-11-14T18:33:35.766Z,82.93
2022-11-14T18:36:04.479Z,82.55
2022-11-14T18:38:33.295Z,84.09
2022-11-14T18:41:03.373Z,85.69
2022-11-14T18:43:33.213Z,84.53
2022-11-14T18:46:05.873Z,82.44
2022-11-14T18:48:33.480Z,81.91
2022-11-14T18:51:05.661Z,82.92
2022-11-14T18:53:33.467Z,83.81
2022-11-14T18:56:04.350Z,82.00
2022-11-14T18:58:33.663Z,82.55
2022-11-14T19:01:09.603Z,82.91
2022-11-14T19:03:37.063Z,81.72
2022-11-14T19:06:06.052Z,81.41
2022-11-14T19:08:33.489Z,81.75
2022-11-14T19:11:01.948Z,81.62
2022-11-14T19:13:29.669Z,82.31
2022-11-14T19:16:03.069Z,82.54
2022-11-14T19:18:31.203Z,82.19
2022-11-14T19:20:59.505Z,82.01
2022-11-14T19:23:27.015Z,82.24
2022-11-14T19:26:00.199Z,82.02
2022-11-14T19:28:29.229Z,82.77
2022-11-14T19:31:02.976Z,82.44
2022-11-14T19:33:30.776Z,83.14
2022-11-14T19:35:58.518Z,83.92
2022-11-14T19:38:26.106Z,87.21
2022-11-14T19:40:53.525Z,84.44
2022-11-14T19:43:21.708Z,83.17
2022-11-14T19:45:49.454Z,84.40
2022-11-14T19:48:18.302Z,84.20
2022-11-14T19:50:45.666Z,84.87
2022-11-14T19:53:13.062Z,83.84
2022-11-14T19:55:40.479Z,84.33
2022-11-14T19:58:07.923Z,84.00
2022-11-14T20:00:35.312Z,83.49
2022-11-14T20:03:04.674Z,83.73
2022-11-14T20:05:34.501Z,84.77
2022-11-14T20:08:02.000Z,84.12
2022-11-14T20:10:29.402Z,85.20
2022-11-14T20:12:56.963Z,84.32
2022-11-14T20:15:24.388Z,84.77
2022-11-14T20:17:52.003Z,84.84
2022-11-14T20:20:19.462Z,85.06
2022-11-14T20:22:48.452Z,85.11
2022-11-14T20:25:20.185Z,84.50
2022-11-14T20:27:49.088Z,84.60
2022-11-14T20:30:17.000Z,83.81
2022-11-14T20:32:44.755Z,83.29
2022-11-14T20:35:12.335Z,85.94
2022-11-14T20:37:39.976Z,85.00
2022-11-14T20:40:09.955Z,84.72
2022-11-14T20:42:37.405Z,83.70
2022-11-14T20:45:05.567Z,83.30
2022-11-14T20:47:33.799Z,85.17
2022-11-14T20:50:03.499Z,84.09
2022-11-14T20:52:30.998Z,84.43
2022-11-14T20:54:58.483Z,85.10
2022-11-14T20:57:27.318Z,82.36
2022-11-14T20:59:57.122Z,83.76
2022-11-14T21:02:24.600Z,84.22
2022-11-14T21:04:54.741Z,83.43
2022-11-14T21:07:22.146Z,83.40
2022-11-14T21:10:10.369Z,85.35
2022-11-14T21:12:44.486Z,85.14
2022-11-14T21:15:14.384Z,88.14
2022-11-14T21:17:41.998Z,86.29
2022-11-14T21:20:13.231Z,85.22
2022-11-14T21:22:40.643Z,85.98
2022-11-14T21:25:08.890Z,84.40
2022-11-14T21:27:36.316Z,84.79
2022-11-14T21:30:06.006Z,84.61
2022-11-14T21:32:36.213Z,83.72
2022-11-14T21:35:09.424Z,84.76
2022-11-14T21:37:37.181Z,83.75
2022-11-14T21:40:05.105Z,86.56
2022-11-14T21:42:33.056Z,84.92
2022-11-14T21:45:00.477Z,84.66
2022-11-14T21:47:29.330Z,86.49
2022-11-14T21:50:00.957Z,85.78
2022-11-14T21:52:28.663Z,85.71
2022-11-14T21:54:56.209Z,84.50
2022-11-14T21:57:25.273Z,85.23
2022-11-14T21:59:52.727Z,84.42
2022-11-14T22:02:37.958Z,84.72
2022-11-14T22:05:08.190Z,85.37
2022-11-14T22:07:35.711Z,84.80
2022-11-14T22:10:03.188Z,84.18
2022-11-14T22:12:30.604Z,86.16
2022-11-14T22:14:58.147Z,86.21
2022-11-14T22:17:25.660Z,85.55
2022-11-14T22:19:53.087Z,84.44
2022-11-14T22:22:22.432Z,84.60
2022-11-14T22:24:49.847Z,84.66
2022-11-14T22:27:17.405Z,84.49
2022-11-14T22:29:45.519Z,84.62
2022-11-14T22:32:13.023Z,84.50
2022-11-14T22:34:40.650Z,85.07
2022-11-14T22:37:11.103Z,85.42
2022-11-14T22:39:39.808Z,84.77
2022-11-14T22:42:09.074Z,85.83
2022-11-14T22:44:36.463Z,85.37
2022-11-14T22:47:03.894Z,84.72
2022-11-14T22:49:31.271Z,85.17
2022-11-14T22:51:58.900Z,85.09
2022-11-14T22:54:26.378Z,85.70
2022-11-14T22:56:55.073Z,85.98
2022-11-14T22:59:22.535Z,85.09
2022-11-14T23:01:50.280Z,85.60
2022-11-14T23:04:17.921Z,85.49
2022-11-14T23:06:45.500Z,85.41
2022-11-14T23:09:18.330Z,86.24
2022-11-14T23:11:45.703Z,85.54
2022-11-14T23:14:14.996Z,85.81
2022-11-14T23:16:42.635Z,86.34
2022-11-14T23:19:10.250Z,85.52
2022-11-14T23:21:38.768Z,85.55
2022-11-14T23:24:08.665Z,85.14
2022-11-14T23:26:36.781Z,85.35
2022-11-14T23:29:05.229Z,86.13
2022-11-14T23:31:34.254Z,85.33
2022-11-14T23:34:01.827Z,86.94
2022-11-14T23:36:29.434Z,86.08
2022-11-14T23:38:56.983Z,85.97
2022-11-14T23:41:26.319Z,85.82
2022-11-14T23:43:53.990Z,85.13
2022-11-14T23:46:21.671Z,87.30
2022-11-14T23:48:51.343Z,86.78
2022-11-14T23:51:18.851Z,87.14
2022-11-14T23:53:46.863Z,86.37
2022-11-14T23:56:15.127Z,86.13
2022-11-14T23:58:43.164Z,84.96
